sensor_id;sensor_type;location;lat;lon;timestamp;pressure;altitude;pressure_sealevel;temperature;humidity
18652;BME280;9455;54.302;10.124;2022-11-15T00:02:17;101141.69;;;5.06;97.62
18652;BME280;9455;54.302;10.124;2022-11-15T00:04:45;101140.66;;;5.24;99.68
18652;BME280;9455;54.302;10.124;2022-11-15T00:07:11;101130.25;;;5.21;98.92
18652;BME280;9455;54.302;10.124;2022-11-15T00:09:38;101134.81;;;5.33;98.58
18652;BME280;9455;54.302;10.124;2022-11-15T00:12:05;101132.16;;;5.33;98.26
18652;BME280;9455;54.302;10.124;2022-11-15T00:14:31;101141.13;;;5.30;97.88
18652;BME280;9455;54.302;10.124;2022-11-15T00:16:58;101133.19;;;5.30;97.82
18652;BME280;9455;54.302;10.124;2022-11-15T00:19:25;101135.31;;;5.39;98.65
18652;BME280;9455;54.302;10.124;2022-11-15T00:21:52;101140.47;;;5.27;98.79
18652;BME280;9455;54.302;10.124;2022-11-15T00:24:19;101136.78;;;5.29;99.64
18652;BME280;9455;54.302;10.124;2022-11-15T00:26:46;101137.00;;;5.40;99.18
18652;BME280;9455;54.302;10.124;2022-11-15T00:29:12;101127.56;;;5.36;99.18
18652;BME280;9455;54.302;10.124;2022-11-15T00:31:39;101123.22;;;5.35;99.21
18652;BME280;9455;54.302;10.124;2022-11-15T00:34:05;101116.97;;;5.36;99.07
18652;BME280;9455;54.302;10.124;2022-11-15T00:36:33;101115.84;;;5.40;98.90
18652;BME280;9455;54.302;10.124;2022-11-15T00:39:03;101118.41;;;5.42;98.21
18652;BME280;9455;54.302;10.124;2022-11-15T00:41:30;101121.84;;;5.28;98.31
18652;BME280;9455;54.302;10.124;2022-11-15T00:43:56;101114.38;;;5.21;98.71
18652;BME280;9455;54.302;10.124;2022-11-15T00:46:23;101113.19;;;5.40;99.35
18652;BME280;9455;54.302;10.124;2022-11-15T00:48:50;101112.25;;;5.41;98.95
18652;BME280;9455;54.302;10.124;2022-11-15T00:51:16;101112.63;;;5.35;98.97
18652;BME280;9455;54.302;10.124;2022-11-15T00:53:43;101109.25;;;5.47;99.52
18652;BME280;9455;54.302;10.124;2022-11-15T00:56:11;101107.25;;;5.51;99.31
18652;BME280;9455;54.302;10.124;2022-11-15T00:58:37;101104.72;;;5.49;99.20
18652;BME280;9455;54.302;10.124;2022-11-15T01:01:09;101109.25;;;5.61;100.00
18652;BME280;9455;54.302;10.124;2022-11-15T01:03:37;101104.91;;;5.60;100.00
18652;BME280;9455;54.302;10.124;2022-11-15T01:06:04;101101.88;;;5.66;99.82
18652;BME280;9455;54.302;10.124;2022-11-15T01:08:31;101103.78;;;5.64;99.96
18652;BME280;9455;54.302;10.124;2022-11-15T01:11:00;101106.50;;;5.49;100.00
18652;BME280;9455;54.302;10.124;2022-11-15T01:13:31;101100.75;;;5.56;100.00
18652;BME280;9455;54.302;10.124;2022-11-15T01:15:58;101093.56;;;5.58;100.00
18652;BME280;9455;54.302;10.124;2022-11-15T01:18:24;101092.91;;;5.69;100.00
18652;BME280;9455;54.302;10.124;2022-11-15T01:20:51;101087.03;;;5.78;100.00
18652;BME280;9455;54.302;10.124;2022-11-15T01:23:18;101091.41;;;5.79;100.00
18652;BME280;9455;54.302;10.124;2022-11-15T01:25:44;101092.09;;;5.83;100.00
18652;BME280;9455;54.302;10.124;2022-11-15T01:28:11;101099.56;;;5.90;100.00
18652;BME280;9455;54.302;10.124;2022-11-15T01:30:39;101102.03;;;5.93;100.00
18652;BME280;9455;54.302;10.124;2022-11-15T01:33:05;101099.66;;;6.03;100.00
18652;BME280;9455;54.302;10.124;2022-11-15T01:35:32;101088.78;;;5.93;100.00
18652;BME280;9455;54.302;10.124;2022-11-15T01:37:58;101095.09;;;6.05;100.00
18652;BME280;9455;54.302;10.124;2022-11-15T01:40:25;101086.59;;;6.00;100.00
18652;BME280;9455;54.302;10.124;2022-11-15T01:42:52;101082.06;;;6.02;100.00
18652;BME280;9455;54.302;10.124;2022-11-15T01:45:18;101085.00;;;5.97;100.00
18652;BME280;9455;54.302;10.124;2022-11-15T01:47:48;101081.03;;;6.04;100.00
18652;BME280;9455;54.302;10.124;2022-11-15T01:50:19;101093.56;;;6.01;100.00
18652;BME280;9455;54.302;10.124;2022-11-15T01:52:48;101082.91;;;6.02;100.00
18652;BME280;9455;54.302;10.124;2022-11-15T01:55:19;101075.97;;;6.14;100.00
18652;BME280;9455;54.302;10.124;2022-11-15T01:57:51;101072.78;;;6.09;100.00
18652;BME280;9455;54.302;10.124;2022-11-15T02:00:19;101073.44;;;6.12;100.00
18652;BME280;9455;54.302;10.124;2022-11-15T02:02:47;101059.13;;;6.15;100.00
18652;BME280;9455;54.302;10.124;2022-11-15T02:05:13;101068.50;;;6.06;100.00
18652;BME280;9455;54.302;10.124;2022-11-15T02:07:40;101059.25;;;6.13;100.00
18652;BME280;9455;54.302;10.124;2022-11-15T02:10:09;101054.59;;;6.17;100.00
18652;BME280;9455;54.302;10.124;2022-11-15T02:12:36;101061.03;;;6.27;100.00
18652;BME280;9455;54.302;10.124;2022-11-15T02:15:05;101052.16;;;6.14;100.00
18652;BME280;9455;54.302;10.124;2022-11-15T02:17:50;101055.72;;;6.27;100.00
18652;BME280;9455;54.302;10.124;2022-11-15T02:20:51;101044.22;;;6.14;100.00
18652;BME280;9455;54.302;10.124;2022-11-15T02:23:43;101050.44;;;6.27;100.00
18652;BME280;9455;54.302;10.124;2022-11-15T02:26:32;101050.63;;;6.24;100.00
18652;BME280;9455;54.302;10.124;2022-11-15T02:29:08;101061.78;;;6.15;100.00
18652;BME280;9455;54.302;10.124;2022-11-15T02:31:43;101059.72;;;6.20;100.00
18652;BME280;9455;54.302;10.124;2022-11-15T02:34:20;101052.69;;;6.19;100.00
18652;BME280;9455;54.302;10.124;2022-11-15T02:37:00;101048.94;;;6.23;100.00
18652;BME280;9455;54.302;10.124;2022-11-15T02:39:35;101063.00;;;6.23;100.00
18652;BME280;9455;54.302;10.124;2022-11-15T02:42:07;101060.97;;;6.14;100.00
18652;BME280;9455;54.302;10.124;2022-11-15T02:44:56;101065.19;;;6.17;100.00
18652;BME280;9455;54.302;10.124;2022-11-15T02:47:27;101060.63;;;6.19;100.00
18652;BME280;9455;54.302;10.124;2022-11-15T02:49:59;101047.81;;;6.13;100.00
18652;BME280;9455;54.302;10.124;2022-11-15T02:52:27;101049.53;;;6.00;100.00
18652;BME280;9455;54.302;10.124;2022-11-15T02:54:55;101040.84;;;5.98;100.00
18652;BME280;9455;54.302;10.124;2022-11-15T02:57:30;101048.88;;;5.96;100.00
18652;BME280;9455;54.302;10.124;2022-11-15T03:00:06;101048.38;;;6.04;100.00
18652;BME280;9455;54.302;10.124;2022-11-15T03:02:43;101043.91;;;5.92;100.00
18652;BME280;9455;54.302;10.124;2022-11-15T03:05:19;101042.16;;;5.91;100.00
18652;BME280;9455;54.302;10.124;2022-11-15T03:07:53;101042.78;;;5.82;100.00
18652;BME280;9455;54.302;10.124;2022-11-15T03:10:25;101045.78;;;5.90;100.00
18652;BME280;9455;54.302;10.124;2022-11-15T03:13:02;101040.28;;;5.93;100.00
18652;BME280;9455;54.302;10.124;2022-11-15T03:15:37;101044.28;;;5.86;100.00
18652;BME280;9455;54.302;10.124;2022-11-15T03:18:10;101036.88;;;5.91;100.00
18652;BME280;9455;54.302;10.124;2022-11-15T03:20:42;101035.09;;;5.77;100.00
18652;BME280;9455;54.302;10.124;2022-11-15T03:23:10;101021.75;;;5.78;100.00
18652;BME280;9455;54.302;10.124;2022-11-15T03:25:41;101024.97;;;5.84;100.00
18652;BME280;9455;54.302;10.124;2022-11-15T03:28:15;101018.75;;;5.70;100.00
18652;BME280;9455;54.302;10.124;2022-11-15T03:30:43;101023.28;;;5.83;100.00
18652;BME280;9455;54.302;10.124;2022-11-15T03:33:13;101023.44;;;5.79;100.00
18652;BME280;9455;54.302;10.124;2022-11-15T03:35:42;101025.91;;;5.68;100.00
18652;BME280;9455;54.302;10.124;2022-11-15T03:38:15;101006.63;;;5.66;100.00
18652;BME280;9455;54.302;10.124;2022-11-15T03:40:48;100999.47;;;5.68;100.00
18652;BME280;9455;54.302;10.124;2022-11-15T03:43:22;100997.59;;;5.70;100.00
18652;BME280;9455;54.302;10.124;2022-11-15T03:45:55;101008.34;;;5.67;100.00
18652;BME280;9455;54.302;10.124;2022-11-15T03:48:26;101006.44;;;5.69;99.98
18652;BME280;9455;54.302;10.124;2022-11-15T03:50:55;101010.75;;;5.58;100.00
18652;BME280;9455;54.302;10.124;2022-11-15T03:53:22;101012.72;;;5.54;100.00
18652;BME280;9455;54.302;10.124;2022-11-15T03:55:48;101013.75;;;5.52;100.00
18652;BME280;9455;54.302;10.124;2022-11-15T03:58:15;101012.53;;;5.57;100.00
18652;BME280;9455;54.302;10.124;2022-11-15T04:00:42;101017.13;;;5.54;100.00
18652;BME280;9455;54.302;10.124;2022-11-15T04:03:08;101017.72;;;5.45;100.00
18652;BME280;9455;54.302;10.124;2022-11-15T04:05:36;101027.06;;;5.50;99.92
18652;BME280;9455;54.302;10.124;2022-11-15T04:08:03;101017.63;;;5.46;100.00
18652;BME280;9455;54.302;10.124;2022-11-15T04:10:30;101018.38;;;5.48;100.00
18652;BME280;9455;54.302;10.124;2022-11-15T04:12:56;101014.81;;;5.49;100.00
18652;BME280;9455;54.302;10.124;2022-11-15T04:15:23;101022.81;;;5.48;100.00
18652;BME280;9455;54.302;10.124;2022-11-15T04:17:53;101015.34;;;5.40;100.00
18652;BME280;9455;54.302;10.124;2022-11-15T04:20:21;101015.81;;;5.47;100.00
18652;BME280;9455;54.302;10.124;2022-11-15T04:23:09;101028.84;;;5.50;100.00
18652;BME280;9455;54.302;10.124;2022-11-15T04:25:54;101014.03;;;5.33;100.00
18652;BME280;9455;54.302;10.124;2022-11-15T04:28:22;101016.00;;;5.44;100.00
18652;BME280;9455;54.302;10.124;2022-11-15T04:30:49;101012.25;;;5.34;100.00
18652;BME280;9455;54.302;10.124;2022-11-15T04:33:15;101014.91;;;5.34;100.00
18652;BME280;9455;54.302;10.124;2022-11-15T04:35:42;101015.72;;;5.34;100.00
18652;BME280;9455;54.302;10.124;2022-11-15T04:38:11;101019.41;;;5.46;100.00
18652;BME280;9455;54.302;10.124;2022-11-15T04:40:37;101022.44;;;5.40;100.00
18652;BME280;9455;54.302;10.124;2022-11-15T04:43:04;101029.44;;;5.27;100.00
18652;BME280;9455;54.302;10.124;2022-11-15T04:45:31;101015.91;;;5.31;100.00
18652;BME280;9455;54.302;10.124;2022-11-15T04:47:57;101025.38;;;5.35;100.00
18652;BME280;9455;54.302;10.124;2022-11-15T04:50:24;101014.41;;;5.27;100.00
18652;BME280;9455;54.302;10.124;2022-11-15T04:52:52;101024.97;;;5.27;100.00
18652;BME280;9455;54.302;10.124;2022-11-15T04:55:20;101039.34;;;5.37;100.00
18652;BME280;9455;54.302;10.124;2022-11-15T04:57:47;101033.31;;;5.35;100.00
18652;BME280;9455;54.302;10.124;2022-11-15T05:00:15;101027.81;;;5.38;100.00
18652;BME280;9455;54.302;10.124;2022-11-15T05:02:42;101026.47;;;5.31;100.00
18652;BME280;9455;54.302;10.124;2022-11-15T05:05:27;101022.91;;;5.32;100.00
18652;BME280;9455;54.302;10.124;2022-11-15T05:07:53;101028.75;;;5.23;100.00
18652;BME280;9455;54.302;10.124;2022-11-15T05:10:21;101024.59;;;5.33;100.00
18652;BME280;9455;54.302;10.124;2022-11-15T05:12:48;101020.28;;;5.32;100.00
18652;BME280;9455;54.302;10.124;2022-11-15T05:15:15;101017.22;;;5.38;100.00
18652;BME280;9455;54.302;10.124;2022-11-15T05:17:41;101024.53;;;5.35;100.00
18652;BME280;9455;54.302;10.124;2022-11-15T05:20:09;101017.03;;;5.27;100.00
18652;BME280;9455;54.302;10.124;2022-11-15T05:22:36;101026.56;;;5.30;100.00
18652;BME280;9455;54.302;10.124;2022-11-15T05:25:03;101020.56;;;5.28;100.00
18652;BME280;9455;54.302;10.124;2022-11-15T05:27:32;101036.13;;;5.32;100.00
18652;BME280;9455;54.302;10.124;2022-11-15T05:29:59;101039.88;;;5.28;100.00
18652;BME280;9455;54.302;10.124;2022-11-15T05:32:25;101033.41;;;5.20;100.00
18652;BME280;9455;54.302;10.124;2022-11-15T05:34:52;101036.22;;;5.31;100.00
18652;BME280;9455;54.302;10.124;2022-11-15T05:37:19;101035.56;;;5.41;100.00
18652;BME280;9455;54.302;10.124;2022-11-15T05:39:45;101036.69;;;5.51;100.00
18652;BME280;9455;54.302;10.124;2022-11-15T05:42:13;101031.59;;;5.62;100.00
18652;BME280;9455;54.302;10.124;2022-11-15T05:44:45;101040.09;;;5.67;100.00
18652;BME280;9455;54.302;10.124;2022-11-15T05:47:15;101036.25;;;5.87;100.00
18652;BME280;9455;54.302;10.124;2022-11-15T05:49:44;101038.13;;;5.85;100.00
18652;BME280;9455;54.302;10.124;2022-11-15T05:52:14;101027.25;;;5.90;100.00
18652;BME280;9455;54.302;10.124;2022-11-15T05:54:43;101024.47;;;6.05;100.00
18652;BME280;9455;54.302;10.124;2022-11-15T05:57:10;101019.44;;;6.15;100.00
18652;BME280;9455;54.302;10.124;2022-11-15T05:59:37;101013.41;;;6.13;100.00
18652;BME280;9455;54.302;10.124;2022-11-15T06:02:07;101015.13;;;6.26;100.00
18652;BME280;9455;54.302;10.124;2022-11-15T06:04:33;101018.75;;;6.25;100.00
18652;BME280;9455;54.302;10.124;2022-11-15T06:07:00;101012.28;;;6.29;100.00
18652;BME280;9455;54.302;10.124;2022-11-15T06:09:26;101021.25;;;6.41;100.00
18652;BME280;9455;54.302;10.124;2022-11-15T06:11:53;101014.03;;;6.43;100.00
18652;BME280;9455;54.302;10.124;2022-11-15T06:14:20;101007.03;;;6.42;100.00
18652;BME280;9455;54.302;10.124;2022-11-15T06:16:46;101015.94;;;6.41;100.00
18652;BME280;9455;54.302;10.124;2022-11-15T06:19:14;101009.81;;;6.53;100.00
18652;BME280;9455;54.302;10.124;2022-11-15T06:21:42;101016.09;;;6.52;100.00
18652;BME280;9455;54.302;10.124;2022-11-15T06:24:08;101012.66;;;6.50;100.00
18652;BME280;9455;54.302;10.124;2022-11-15T06:26:35;101012.47;;;6.53;100.00
18652;BME280;9455;54.302;10.124;2022-11-15T06:29:02;101012.38;;;6.54;100.00
18652;BME280;9455;54.302;10.124;2022-11-15T06:31:29;101010.59;;;6.55;100.00
18652;BME280;9455;54.302;10.124;2022-11-15T06:33:56;101020.03;;;6.59;100.00
18652;BME280;9455;54.302;10.124;2022-11-15T06:36:24;101017.94;;;6.64;100.00
18652;BME280;9455;54.302;10.124;2022-11-15T06:38:51;101017.94;;;6.64;100.00
18652;BME280;9455;54.302;10.124;2022-11-15T06:41:17;101018.56;;;6.67;100.00
18652;BME280;9455;54.302;10.124;2022-11-15T06:43:46;101012.75;;;6.62;100.00
18652;BME280;9455;54.302;10.124;2022-11-15T06:46:12;101019.75;;;6.76;100.00
18652;BME280;9455;54.302;10.124;2022-11-15T06:48:39;101027.09;;;6.85;100.00
18652;BME280;9455;54.302;10.124;2022-11-15T06:51:06;101031.97;;;6.91;99.98
18652;BME280;9455;54.302;10.124;2022-11-15T06:53:34;101042.13;;;6.84;100.00
18652;BME280;9455;54.302;10.124;2022-11-15T06:56:02;101034.22;;;6.97;100.00
18652;BME280;9455;54.302;10.124;2022-11-15T06:58:29;101029.88;;;6.96;100.00
18652;BME280;9455;54.302;10.124;2022-11-15T07:01:00;101028.41;;;7.04;99.94
18652;BME280;9455;54.302;10.124;2022-11-15T07:03:26;101025.66;;;7.06;100.00
18652;BME280;9455;54.302;10.124;2022-11-15T07:05:54;101047.16;;;7.14;99.92
18652;BME280;9455;54.302;10.124;2022-11-15T07:08:21;101055.31;;;7.11;100.00
18652;BME280;9455;54.302;10.124;2022-11-15T07:10:50;101054.91;;;7.04;100.00
18652;BME280;9455;54.302;10.124;2022-11-15T07:13:17;101058.84;;;7.11;100.00
18652;BME280;9455;54.302;10.124;2022-11-15T07:15:44;101061.28;;;7.14;100.00
18652;BME280;9455;54.302;10.124;2022-11-15T07:18:10;101057.03;;;7.12;100.00
18652;BME280;9455;54.302;10.124;2022-11-15T07:20:37;101069.34;;;7.13;100.00
18652;BME280;9455;54.302;10.124;2022-11-15T07:23:05;101070.06;;;7.15;100.00
18652;BME280;9455;54.302;10.124;2022-11-15T07:25:32;101071.78;;;7.16;100.00
18652;BME280;9455;54.302;10.124;2022-11-15T07:28:01;101071.03;;;7.26;100.00
18652;BME280;9455;54.302;10.124;2022-11-15T07:30:29;101078.25;;;7.24;100.00
18652;BME280;9455;54.302;10.124;2022-11-15T07:32:56;101079.56;;;7.31;100.00
18652;BME280;9455;54.302;10.124;2022-11-15T07:35:24;101065.84;;;7.37;100.00
18652;BME280;9455;54.302;10.124;2022-11-15T07:37:56;101082.06;;;7.20;100.00
18652;BME280;9455;54.302;10.124;2022-11-15T07:40:23;101079.75;;;7.28;100.00
18652;BME280;9455;54.302;10.124;2022-11-15T07:42:50;101076.34;;;7.26;100.00
18652;BME280;9455;54.302;10.124;2022-11-15T07:45:21;101074.56;;;7.27;100.00
18652;BME280;9455;54.302;10.124;2022-11-15T07:47:48;101078.91;;;7.40;100.00
18652;BME280;9455;54.302;10.124;2022-11-15T07:50:15;101076.16;;;7.42;100.00
18652;BME280;9455;54.302;10.124;2022-11-15T07:52:42;101081.03;;;7.35;100.00
18652;BME280;9455;54.302;10.124;2022-11-15T07:55:09;101085.59;;;7.33;100.00
18652;BME280;9455;54.302;10.124;2022-11-15T07:57:36;101083.69;;;7.35;100.00
18652;BME280;9455;54.302;10.124;2022-11-15T08:00:04;101078.50;;;7.34;100.00
18652;BME280;9455;54.302;10.124;2022-11-15T08:02:32;101073.41;;;7.43;100.00
18652;BME280;9455;54.302;10.124;2022-11-15T08:04:59;101082.53;;;7.39;100.00
18652;BME280;9455;54.302;10.124;2022-11-15T08:07:28;101073.41;;;7.43;100.00
18652;BME280;9455;54.302;10.124;2022-11-15T08:09:55;101067.03;;;7.46;100.00
18652;BME280;9455;54.302;10.124;2022-11-15T08:12:22;101071.38;;;7.47;100.00
18652;BME280;9455;54.302;10.124;2022-11-15T08:14:49;101066.06;;;7.47;100.00
18652;BME280;9455;54.302;10.124;2022-11-15T08:17:16;101074.03;;;7.59;100.00
18652;BME280;9455;54.302;10.124;2022-11-15T08:19:44;101075.72;;;7.73;100.00
18652;BME280;9455;54.302;10.124;2022-11-15T08:22:10;101061.91;;;7.80;100.00
18652;BME280;9455;54.302;10.124;2022-11-15T08:24:37;101072.09;;;7.74;100.00
18652;BME280;9455;54.302;10.124;2022-11-15T08:27:04;101068.50;;;7.75;100.00
18652;BME280;9455;54.302;10.124;2022-11-15T08:29:35;101064.34;;;7.71;100.00
18652;BME280;9455;54.302;10.124;2022-11-15T08:32:02;101074.03;;;7.72;100.00
18652;BME280;9455;54.302;10.124;2022-11-15T08:34:29;101074.03;;;7.72;100.00
18652;BME280;9455;54.302;10.124;2022-11-15T08:36:57;101075.72;;;7.73;100.00
18652;BME280;9455;54.302;10.124;2022-11-15T08:39:24;101069.66;;;7.83;100.00
18652;BME280;9455;54.302;10.124;2022-11-15T08:41:51;101072.53;;;7.80;100.00
18652;BME280;9455;54.302;10.124;2022-11-15T08:44:17;101068.50;;;7.87;100.00
18652;BME280;9455;54.302;10.124;2022-11-15T08:46:45;101070.59;;;7.95;100.00
18652;BME280;9455;54.302;10.124;2022-11-15T08:49:11;101077.50;;;7.97;100.00
18652;BME280;9455;54.302;10.124;2022-11-15T08:51:38;101073.88;;;7.98;100.00
18652;BME280;9455;54.302;10.124;2022-11-15T08:54:07;101081.63;;;8.01;100.00
18652;BME280;9455;54.302;10.124;2022-11-15T08:56:33;101077.94;;;7.91;100.00
18652;BME280;9455;54.302;10.124;2022-11-15T08:59:00;101075.88;;;7.95;100.00
18652;BME280;9455;54.302;10.124;2022-11-15T09:01:26;101074.59;;;8.00;100.00
18652;BME280;9455;54.302;10.124;2022-11-15T09:03:53;101074.59;;;8.00;100.00
18652;BME280;9455;54.302;10.124;2022-11-15T09:06:20;101078.97;;;8.01;100.00
18652;BME280;9455;54.302;10.124;2022-11-15T09:08:46;101079.06;;;8.25;100.00
18652;BME280;9455;54.302;10.124;2022-11-15T09:11:15;101070.97;;;8.14;100.00
18652;BME280;9455;54.302;10.124;2022-11-15T09:13:45;101076.06;;;8.17;100.00
18652;BME280;9455;54.302;10.124;2022-11-15T09:16:11;101072.66;;;8.15;100.00
18652;BME280;9455;54.302;10.124;2022-11-15T09:18:40;101068.94;;;8.17;100.00
18652;BME280;9455;54.302;10.124;2022-11-15T09:21:07;101073.41;;;8.17;100.00
18652;BME280;9455;54.302;10.124;2022-11-15T09:23:34;101071.19;;;8.23;100.00
18652;BME280;9455;54.302;10.124;2022-11-15T09:26:02;101072.03;;;8.24;100.00
18652;BME280;9455;54.302;10.124;2022-11-15T09:28:32;101082.69;;;8.24;100.00
18652;BME280;9455;54.302;10.124;2022-11-15T09:30:59;101072.34;;;8.32;100.00
18652;BME280;9455;54.302;10.124;2022-11-15T09:33:27;101076.47;;;8.36;100.00
18652;BME280;9455;54.302;10.124;2022-11-15T09:35:54;101073.38;;;8.42;99.85
18652;BME280;9455;54.302;10.124;2022-11-15T09:38:20;101086.38;;;8.34;99.94
18652;BME280;9455;54.302;10.124;2022-11-15T09:40:50;101085.78;;;8.41;99.81
18652;BME280;9455;54.302;10.124;2022-11-15T09:43:29;101080.91;;;8.48;100.00
18652;BME280;9455;54.302;10.124;2022-11-15T09:46:07;101078.94;;;8.50;100.00
18652;BME280;9455;54.302;10.124;2022-11-15T09:48:48;101084.06;;;8.53;99.60
18652;BME280;9455;54.302;10.124;2022-11-15T09:51:22;101084.16;;;8.52;99.70
18652;BME280;9455;54.302;10.124;2022-11-15T09:53:56;101073.63;;;8.50;99.70
18652;BME280;9455;54.302;10.124;2022-11-15T09:56:28;101074.88;;;8.57;99.81
18652;BME280;9455;54.302;10.124;2022-11-15T09:59:01;101073.63;;;8.50;99.98
18652;BME280;9455;54.302;10.124;2022-11-15T10:01:41;101066.19;;;8.55;99.86
18652;BME280;9455;54.302;10.124;2022-11-15T10:04:10;101063.59;;;8.66;100.00
18652;BME280;9455;54.302;10.124;2022-11-15T10:06:42;101067.31;;;8.64;99.99
18652;BME280;9455;54.302;10.124;2022-11-15T10:09:15;101061.66;;;8.68;99.89
18652;BME280;9455;54.302;10.124;2022-11-15T10:11:43;101068.69;;;8.69;100.00
18652;BME280;9455;54.302;10.124;2022-11-15T10:14:11;101065.44;;;8.77;99.83
18652;BME280;9455;54.302;10.124;2022-11-15T10:17:01;101055.66;;;8.77;99.42
18652;BME280;9455;54.302;10.124;2022-11-15T10:19:35;101056.63;;;8.76;99.94
18652;BME280;9455;54.302;10.124;2022-11-15T10:22:21;101047.25;;;8.94;99.35
18652;BME280;9455;54.302;10.124;2022-11-15T10:24:57;101054.00;;;8.87;98.97
18652;BME280;9455;54.302;10.124;2022-11-15T10:27:26;101054.50;;;8.92;99.23
18652;BME280;9455;54.302;10.124;2022-11-15T10:29:53;101040.47;;;8.90;98.96
18652;BME280;9455;54.302;10.124;2022-11-15T10:32:21;101051.94;;;8.91;98.99
18652;BME280;9455;54.302;10.124;2022-11-15T10:34:49;101040.84;;;8.97;99.50
18652;BME280;9455;54.302;10.124;2022-11-15T10:37:27;101044.16;;;9.00;98.99
18652;BME280;9455;54.302;10.124;2022-11-15T10:40:03;101043.63;;;8.95;99.25
18652;BME280;9455;54.302;10.124;2022-11-15T10:42:30;101041.72;;;8.97;99.43
18652;BME280;9455;54.302;10.124;2022-11-15T10:44:57;101043.84;;;8.92;99.33
18652;BME280;9455;54.302;10.124;2022-11-15T10:47:27;101039.47;;;8.80;99.61
18652;BME280;9455;54.302;10.124;2022-11-15T10:50:01;101042.69;;;8.96;99.29
18652;BME280;9455;54.302;10.124;2022-11-15T10:52:30;101033.22;;;8.92;99.02
18652;BME280;9455;54.302;10.124;2022-11-15T10:55:02;101037.31;;;8.85;99.36
18652;BME280;9455;54.302;10.124;2022-11-15T10:57:32;101040.22;;;8.82;99.38
18652;BME280;9455;54.302;10.124;2022-11-15T11:00:04;101029.09;;;8.88;99.16
18652;BME280;9455;54.302;10.124;2022-11-15T11:02:36;101026.72;;;8.96;99.30
18652;BME280;9455;54.302;10.124;2022-11-15T11:05:04;101025.75;;;8.97;99.61
18652;BME280;9455;54.302;10.124;2022-11-15T11:07:33;101032.53;;;9.01;99.18
18652;BME280;9455;54.302;10.124;2022-11-15T11:10:05;101016.91;;;8.97;99.50
18652;BME280;9455;54.302;10.124;2022-11-15T11:12:33;101018.75;;;8.96;99.23
18652;BME280;9455;54.302;10.124;2022-11-15T11:15:02;101008.84;;;9.09;99.22
18652;BME280;9455;54.302;10.124;2022-11-15T11:17:49;101011.91;;;9.16;98.90
18652;BME280;9455;54.302;10.124;2022-11-15T11:20:21;101018.44;;;9.23;98.24
18652;BME280;9455;54.302;10.124;2022-11-15T11:23:01;101016.25;;;9.17;98.17
18652;BME280;9455;54.302;10.124;2022-11-15T11:25:34;101017.91;;;9.07;98.88
18652;BME280;9455;54.302;10.124;2022-11-15T11:28:17;101013.81;;;9.14;98.95
18652;BME280;9455;54.302;10.124;2022-11-15T11:31:00;101006.94;;;9.11;98.78
18652;BME280;9455;54.302;10.124;2022-11-15T11:33:34;101005.84;;;9.14;99.16
18652;BME280;9455;54.302;10.124;2022-11-15T11:36:15;100999.91;;;9.10;98.59
18652;BME280;9455;54.302;10.124;2022-11-15T11:38:55;101000.16;;;9.07;99.02
18652;BME280;9455;54.302;10.124;2022-11-15T11:41:39;101000.41;;;9.15;98.96
18652;BME280;9455;54.302;10.124;2022-11-15T11:44:18;100985.19;;;9.17;98.71
18652;BME280;9455;54.302;10.124;2022-11-15T11:46:54;100980.78;;;9.16;98.73
18652;BME280;9455;54.302;10.124;2022-11-15T11:49:26;100976.44;;;9.15;98.65
18652;BME280;9455;54.302;10.124;2022-11-15T11:51:58;100977.19;;;9.17;98.92
18652;BME280;9455;54.302;10.124;2022-11-15T11:54:33;100973.91;;;9.25;98.70
18652;BME280;9455;54.302;10.124;2022-11-15T11:57:03;100978.88;;;9.29;98.44
18652;BME280;9455;54.302;10.124;2022-11-15T11:59:37;100983.84;;;9.23;98.93
18652;BME280;9455;54.302;10.124;2022-11-15T12:02:14;100996.41;;;9.21;99.22
18652;BME280;9455;54.302;10.124;2022-11-15T12:04:47;100985.78;;;9.21;99.01
18652;BME280;9455;54.302;10.124;2022-11-15T12:07:18;100988.94;;;9.26;98.97
18652;BME280;9455;54.302;10.124;2022-11-15T12:09:51;100983.50;;;9.38;98.32
18652;BME280;9455;54.302;10.124;2022-11-15T12:12:25;100977.94;;;9.41;98.44
18652;BME280;9455;54.302;10.124;2022-11-15T12:14:57;100975.75;;;9.46;98.76
18652;BME280;9455;54.302;10.124;2022-11-15T12:17:28;100975.50;;;9.38;98.56
18652;BME280;9455;54.302;10.124;2022-11-15T12:19:59;100975.28;;;9.52;97.97
18652;BME280;9455;54.302;10.124;2022-11-15T12:22:36;100964.75;;;9.51;98.11
18652;BME280;9455;54.302;10.124;2022-11-15T12:25:07;100975.72;;;9.68;97.59
18652;BME280;9455;54.302;10.124;2022-11-15T12:27:42;100965.09;;;9.57;97.68
18652;BME280;9455;54.302;10.124;2022-11-15T12:30:13;100965.19;;;9.67;97.46
18652;BME280;9455;54.302;10.124;2022-11-15T12:32:50;100971.03;;;9.61;97.44
18652;BME280;9455;54.302;10.124;2022-11-15T12:35:26;100963.41;;;9.67;97.45
18652;BME280;9455;54.302;10.124;2022-11-15T12:37:53;100961.09;;;9.63;97.77
18652;BME280;9455;54.302;10.124;2022-11-15T12:40:34;100961.22;;;9.50;97.98
18652;BME280;9455;54.302;10.124;2022-11-15T12:45:45;100950.09;;;9.56;97.60
18652;BME280;9455;54.302;10.124;2022-11-15T12:54:59;100941.88;;;9.59;97.90
18652;BME280;9455;54.302;10.124;2022-11-15T12:57:41;100928.56;;;9.59;97.79
18652;BME280;9455;54.302;10.124;2022-11-15T13:00:36;100936.19;;;9.64;97.65
18652;BME280;9455;54.302;10.124;2022-11-15T13:03:26;100937.38;;;9.71;97.55
18652;BME280;9455;54.302;10.124;2022-11-15T13:05:59;100936.28;;;9.73;97.63
18652;BME280;9455;54.302;10.124;2022-11-15T13:08:40;100936.16;;;9.75;97.38
18652;BME280;9455;54.302;10.124;2022-11-15T13:14:43;100934.09;;;9.67;98.08
18652;BME280;9455;54.302;10.124;2022-11-15T13:17:19;100931.44;;;9.67;97.66
18652;BME280;9455;54.302;10.124;2022-11-15T13:19:53;100936.28;;;9.73;97.87
18652;BME280;9455;54.302;10.124;2022-11-15T13:22:24;100936.31;;;9.62;97.78